Whistler, Alabama
Current Conditions -  °F | °C
As of 5:56 AM on Monday 26 Jan 2015 (Local Time) from KMOB Reporting Station
Few Clouds Few Clouds  
Wind Chill: 38°   Ceiling: Unl
Heat Index: 43°   Visibility: 7mi
Dew Point: 34°   Wind: 9mph
Humidity: 71%   Direction: 310°NW
Pressure: 30.02"   Gusts: NA
Location:  30.7534°N, 88.1122°W
Report Text: KMOB 261156Z 31008KT 7SM FEW250 06/01 A3002 RMK AO2 SLP164 T00610011 10089 20056 53015
Loading
Personal Weather Stations






























Interactive Weather Map New forecast layout! Learn more

10-Day Weather Forecast

Advertisements
Track Severe Weather on mobile